Time;durP1;ratioP1;P1;durP2;ratioP2;P2;SDS_P1;SDS_P2;PMS_P1;PMS_P2;Temp;Humidity;BMP_temperature;BMP_pressure;BME280_temperature;BME280_humidity;BME280_pressure;Samples;Min_cycle;Max_cycle;Signal;HPM_P1;HPM_P2
2022/11/06 00:00:27;;;;;;;11.27;7.57;;;;;;;;;;6160189;23;20240;-87
2022/11/06 00:02:57;;;;;;;9.77;6.97;;;;;;;;;;6159920;23;20574;-87
2022/11/06 00:08:12;;;;;;;8.73;7.50;;;;;;;;;;6159982;23;20174;-87
2022/11/06 00:10:41;;;;;;;8.77;6.40;;;;;;;;;;6159863;23;20177;-87
2022/11/06 00:13:09;;;;;;;8.47;7.10;;;;;;;;;;6160237;23;20205;-87
2022/11/06 00:15:39;;;;;;;12.90;7.17;;;;;;;;;;6160038;23;20193;-87
2022/11/06 00:18:07;;;;;;;8.63;7.47;;;;;;;;;;6184762;23;20336;-87
2022/11/06 00:20:37;;;;;;;7.27;4.83;;;;;;;;;;6186446;23;20229;-87
2022/11/06 00:23:05;;;;;;;8.57;6.53;;;;;;;;;;6160280;23;20205;-87
2022/11/06 00:25:34;;;;;;;7.07;5.27;;;;;;;;;;6159940;23;20188;-87
2022/11/06 00:28:02;;;;;;;9.20;7.53;;;;;;;;;;6160297;23;20178;-87
2022/11/06 00:30:30;;;;;;;9.30;7.33;;;;;;;;;;6160081;23;20181;-87
2022/11/06 00:33:00;;;;;;;8.27;7.13;;;;;;;;;;6159581;23;20205;-87
2022/11/06 00:35:29;;;;;;;12.33;7.07;;;;;;;;;;6160073;23;20181;-87
2022/11/06 00:37:57;;;;;;;7.20;3.73;;;;;;;;;;6186365;23;20186;-86
2022/11/06 00:40:25;;;;;;;11.47;7.47;;;;;;;;;;6159789;23;20178;-87
2022/11/06 00:42:55;;;;;;;10.23;8.40;;;;;;;;;;6159740;23;20194;-87
2022/11/06 00:45:23;;;;;;;10.50;7.37;;;;;;;;;;6185656;23;20254;-87
2022/11/06 00:47:52;;;;;;;9.30;8.27;;;;;;;;;;6185954;23;20171;-87
2022/11/06 00:50:25;;;;;;;10.10;8.40;;;;;;;;;;6159766;23;20305;-87
2022/11/06 00:52:53;;;;;;;9.93;7.80;;;;;;;;;;6184391;23;20198;-87
2022/11/06 00:55:22;;;;;;;14.13;9.00;;;;;;;;;;6159591;23;20202;-87
2022/11/06 00:57:51;;;;;;;8.70;7.87;;;;;;;;;;6159639;23;20178;-87
2022/11/06 01:00:21;;;;;;;11.90;9.60;;;;;;;;;;6185823;23;20168;-87
2022/11/06 01:02:49;;;;;;;10.80;8.60;;;;;;;;;;6159375;23;20197;-87
2022/11/06 01:05:18;;;;;;;11.07;8.80;;;;;;;;;;6159757;23;20212;-87
2022/11/06 01:07:47;;;;;;;9.70;7.13;;;;;;;;;;6184651;23;20173;-87
2022/11/06 01:10:16;;;;;;;7.83;7.10;;;;;;;;;;6159201;23;20173;-87
2022/11/06 01:12:44;;;;;;;14.17;10.70;;;;;;;;;;6159381;23;20279;-87
2022/11/06 01:15:13;;;;;;;11.33;9.10;;;;;;;;;;6185742;23;20231;-87
2022/11/06 01:17:41;;;;;;;11.07;9.50;;;;;;;;;;6184281;23;20178;-87
2022/11/06 01:20:10;;;;;;;15.23;10.93;;;;;;;;;;6159815;23;20182;-87
2022/11/06 01:22:38;;;;;;;13.63;11.60;;;;;;;;;;6185386;23;20196;-87
2022/11/06 01:25:09;;;;;;;13.63;10.93;;;;;;;;;;6184469;23;20173;-87
2022/11/06 01:27:37;;;;;;;15.83;13.37;;;;;;;;;;6159721;23;20285;-87
2022/11/06 01:30:06;;;;;;;15.73;13.67;;;;;;;;;;6159381;23;20191;-87
2022/11/06 01:32:35;;;;;;;13.13;9.17;;;;;;;;;;6185632;23;20192;-87
2022/11/06 01:35:03;;;;;;;15.27;13.20;;;;;;;;;;6185531;23;20169;-87
2022/11/06 01:37:32;;;;;;;14.50;13.07;;;;;;;;;;6185331;23;20219;-87
2022/11/06 01:40:00;;;;;;;14.33;12.83;;;;;;;;;;6185460;23;20218;-87
2022/11/06 01:42:30;;;;;;;16.00;9.60;;;;;;;;;;6184279;23;20271;-87
2022/11/06 01:45:17;;;;;;;7.73;6.90;;;;;;;;;;6158918;23;20173;-87
2022/11/06 01:47:45;;;;;;;14.40;12.93;;;;;;;;;;6159214;23;20173;-87
2022/11/06 01:50:15;;;;;;;12.40;11.20;;;;;;;;;;6184308;23;20226;-87
2022/11/06 01:52:45;;;;;;;14.10;11.07;;;;;;;;;;6159129;23;20213;-87
2022/11/06 01:55:15;;;;;;;13.20;12.00;;;;;;;;;;6184409;23;20181;-87
2022/11/06 01:57:44;;;;;;;11.63;10.10;;;;;;;;;;6159591;23;20176;-87
2022/11/06 02:00:13;;;;;;;12.33;11.30;;;;;;;;;;6185837;23;20182;-87
2022/11/06 02:02:42;;;;;;;15.50;13.90;;;;;;;;;;6159196;23;20284;-87
2022/11/06 02:05:11;;;;;;;13.50;12.30;;;;;;;;;;6159915;23;20218;-87
2022/11/06 02:07:40;;;;;;;14.87;13.50;;;;;;;;;;6187220;23;20205;-87
2022/11/06 02:10:09;;;;;;;12.87;11.60;;;;;;;;;;6187717;23;20176;-87
2022/11/06 02:12:41;;;;;;;15.73;14.20;;;;;;;;;;6185751;23;20204;-87
2022/11/06 02:15:12;;;;;;;6.77;5.60;;;;;;;;;;6187481;23;20174;-87
2022/11/06 02:17:48;;;;;;;12.63;11.43;;;;;;;;;;6185898;23;20212;-87
2022/11/06 02:20:21;;;;;;;15.73;14.30;;;;;;;;;;6187186;23;20255;-87
2022/11/06 02:23:04;;;;;;;11.53;10.23;;;;;;;;;;6186087;23;20232;-86
2022/11/06 02:25:39;;;;;;;11.17;9.67;;;;;;;;;;6187106;23;20180;-86
2022/11/06 02:28:10;;;;;;;12.87;11.77;;;;;;;;;;6161131;23;20184;-86
2022/11/06 02:30:44;;;;;;;14.20;12.90;;;;;;;;;;6187359;23;20239;-86
2022/11/06 02:33:14;;;;;;;13.30;11.77;;;;;;;;;;6161094;23;20186;-86
2022/11/06 02:35:46;;;;;;;15.43;14.10;;;;;;;;;;6185029;23;20201;-86
2022/11/06 02:38:16;;;;;;;15.03;13.50;;;;;;;;;;6160650;23;20177;-86
2022/11/06 02:40:47;;;;;;;14.23;13.13;;;;;;;;;;6186110;23;20181;-87
2022/11/06 02:43:18;;;;;;;13.67;12.47;;;;;;;;;;6160738;23;20248;-86
2022/11/06 02:45:49;;;;;;;16.60;11.70;;;;;;;;;;6161383;23;20264;-87
2022/11/06 02:48:20;;;;;;;10.63;9.53;;;;;;;;;;6185595;23;20204;-86
2022/11/06 02:50:50;;;;;;;14.03;12.83;;;;;;;;;;6160861;23;20176;-86
2022/11/06 02:53:20;;;;;;;13.87;12.53;;;;;;;;;;6161232;23;20226;-86
2022/11/06 02:55:50;;;;;;;12.70;11.57;;;;;;;;;;6160933;23;20209;-86
2022/11/06 02:58:22;;;;;;;13.67;12.33;;;;;;;;;;6160683;23;20194;-86
2022/11/06 03:00:54;;;;;;;12.17;11.07;;;;;;;;;;6185737;23;20182;-86
2022/11/06 03:03:24;;;;;;;13.67;12.43;;;;;;;;;;6160675;23;20206;-86
2022/11/06 03:05:55;;;;;;;12.33;10.50;;;;;;;;;;6160653;23;20185;-86
2022/11/06 03:08:27;;;;;;;13.20;12.00;;;;;;;;;;6185635;23;20203;-86
2022/11/06 03:11:00;;;;;;;12.87;11.77;;;;;;;;;;6185501;23;20182;-86
2022/11/06 03:13:37;;;;;;;15.27;12.00;;;;;;;;;;6160599;23;20207;-86
2022/11/06 03:16:11;;;;;;;15.93;11.13;;;;;;;;;;6186843;23;20178;-86
2022/11/06 03:18:42;;;;;;;14.17;10.40;;;;;;;;;;6186860;23;20174;-86
2022/11/06 03:21:16;;;;;;;14.17;12.90;;;;;;;;;;6186382;23;20205;-86
2022/11/06 03:23:48;;;;;;;12.30;11.20;;;;;;;;;;6186728;23;20192;-86
2022/11/06 03:26:18;;;;;;;13.60;12.27;;;;;;;;;;6160476;23;20178;-86
2022/11/06 03:28:52;;;;;;;9.93;6.87;;;;;;;;;;6160333;23;20182;-86
2022/11/06 03:31:28;;;;;;;13.50;12.10;;;;;;;;;;6160459;23;20177;-86
2022/11/06 03:34:00;;;;;;;4.97;4.57;;;;;;;;;;6160134;23;20171;-87
2022/11/06 03:36:31;;;;;;;10.97;10.07;;;;;;;;;;6160961;23;20189;-86
2022/11/06 03:39:02;;;;;;;15.17;13.73;;;;;;;;;;6160160;23;20214;-86
2022/11/06 03:41:32;;;;;;;12.90;11.90;;;;;;;;;;6160615;23;20206;-86
2022/11/06 03:44:04;;;;;;;13.33;11.93;;;;;;;;;;6160297;23;20198;-86
2022/11/06 03:46:33;;;;;;;16.33;14.93;;;;;;;;;;6160358;23;20185;-86
2022/11/06 03:49:02;;;;;;;16.43;14.87;;;;;;;;;;6160501;23;20174;-86
2022/11/06 03:51:32;;;;;;;14.83;13.17;;;;;;;;;;6160488;23;20177;-86
2022/11/06 03:54:03;;;;;;;19.07;17.47;;;;;;;;;;6186276;23;20169;-87
2022/11/06 03:56:36;;;;;;;16.00;13.63;;;;;;;;;;6160689;23;20177;-86
2022/11/06 03:59:07;;;;;;;19.37;17.33;;;;;;;;;;6185348;23;20178;-86
2022/11/06 04:01:36;;;;;;;20.80;19.07;;;;;;;;;;6159985;23;20178;-86
2022/11/06 04:04:06;;;;;;;22.13;20.03;;;;;;;;;;6160215;23;20285;-86
2022/11/06 04:06:37;;;;;;;21.43;19.53;;;;;;;;;;6159912;23;20210;-86
2022/11/06 04:14:42;;;;;;;21.60;19.57;;;;;;;;;;6160310;23;20171;-86
2022/11/06 04:17:12;;;;;;;18.10;16.20;;;;;;;;;;6160360;23;20202;-86
2022/11/06 04:19:44;;;;;;;24.50;22.37;;;;;;;;;;6159535;23;20202;-86
2022/11/06 04:22:21;;;;;;;15.83;13.37;;;;;;;;;;6186182;23;20202;-86
2022/11/06 04:27:48;;;;;;;22.90;20.77;;;;;;;;;;6159972;23;20288;-86
2022/11/06 04:30:19;;;;;;;30.00;21.73;;;;;;;;;;6160430;23;20182;-86
2022/11/06 04:32:58;;;;;;;28.63;24.30;;;;;;;;;;6159929;23;20177;-86
2022/11/06 04:35:31;;;;;;;30.27;27.23;;;;;;;;;;6184443;23;20182;-86
2022/11/06 04:38:03;;;;;;;41.63;37.67;;;;;;;;;;6160022;23;20313;-86
2022/11/06 04:40:35;;;;;;;36.47;32.90;;;;;;;;;;6185675;23;20170;-86
2022/11/06 04:43:06;;;;;;;42.93;38.60;;;;;;;;;;6159535;23;20179;-86
2022/11/06 04:45:38;;;;;;;43.50;38.97;;;;;;;;;;6159778;23;20205;-86
2022/11/06 04:48:07;;;;;;;41.27;34.70;;;;;;;;;;6160218;23;20173;-86
2022/11/06 04:50:38;;;;;;;42.27;28.73;;;;;;;;;;6185687;23;20167;-86
2022/11/06 04:53:09;;;;;;;48.73;44.27;;;;;;;;;;6159770;23;20177;-86
2022/11/06 04:55:39;;;;;;;43.80;39.43;;;;;;;;;;6186364;23;20182;-86
2022/11/06 04:58:09;;;;;;;41.27;35.70;;;;;;;;;;6159790;23;20259;-86
2022/11/06 05:00:40;;;;;;;39.03;34.97;;;;;;;;;;6185989;23;20176;-86
2022/11/06 05:03:08;;;;;;;40.87;36.10;;;;;;;;;;6184468;23;20283;-86
2022/11/06 05:05:37;;;;;;;46.20;37.50;;;;;;;;;;6159296;23;20268;-87
2022/11/06 05:08:05;;;;;;;43.63;37.63;;;;;;;;;;6159774;23;20184;-87
2022/11/06 05:10:34;;;;;;;34.23;21.87;;;;;;;;;;6185955;23;20196;-87
2022/11/06 05:13:02;;;;;;;46.77;38.37;;;;;;;;;;6159640;23;20267;-86
2022/11/06 05:15:31;;;;;;;45.27;40.30;;;;;;;;;;6185894;23;20169;-86
2022/11/06 05:18:01;;;;;;;40.23;24.93;;;;;;;;;;6159501;23;20224;-87
2022/11/06 05:20:29;;;;;;;36.97;32.23;;;;;;;;;;6159938;23;20172;-86
2022/11/06 05:22:57;;;;;;;29.67;26.37;;;;;;;;;;6159472;23;20184;-86
2022/11/06 05:25:25;;;;;;;28.40;25.43;;;;;;;;;;6159707;23;20248;-86
2022/11/06 05:27:54;;;;;;;29.73;26.53;;;;;;;;;;6184785;23;20215;-86
2022/11/06 05:30:22;;;;;;;35.77;32.70;;;;;;;;;;6159424;23;20200;-86
2022/11/06 05:32:50;;;;;;;26.37;23.57;;;;;;;;;;6159502;23;20178;-86
2022/11/06 05:35:21;;;;;;;32.20;29.23;;;;;;;;;;6159401;23;20177;-86
2022/11/06 05:37:49;;;;;;;26.47;21.77;;;;;;;;;;6159691;23;20235;-86
2022/11/06 05:40:18;;;;;;;18.80;16.90;;;;;;;;;;6159005;23;20184;-86
2022/11/06 05:42:46;;;;;;;25.00;22.23;;;;;;;;;;6159875;23;20179;-86
2022/11/06 05:45:14;;;;;;;25.70;22.30;;;;;;;;;;6185404;23;20196;-86
2022/11/06 05:47:43;;;;;;;25.40;22.07;;;;;;;;;;6159778;23;20235;-86
2022/11/06 05:50:11;;;;;;;23.80;21.10;;;;;;;;;;6185031;23;20227;-87
2022/11/06 05:52:41;;;;;;;27.87;25.17;;;;;;;;;;6159697;23;20177;-86
2022/11/06 05:55:09;;;;;;;24.93;22.57;;;;;;;;;;6159824;23;20268;-86
2022/11/06 05:57:42;;;;;;;24.13;17.30;;;;;;;;;;6159396;23;20207;-86
2022/11/06 06:00:12;;;;;;;21.53;17.90;;;;;;;;;;6159520;23;20177;-86
2022/11/06 06:02:40;;;;;;;19.93;18.03;;;;;;;;;;6159546;23;20177;-86
2022/11/06 06:05:09;;;;;;;28.07;25.33;;;;;;;;;;6158702;23;20277;-86
2022/11/06 06:07:38;;;;;;;20.10;14.23;;;;;;;;;;6159356;23;20178;-87
2022/11/06 06:10:08;;;;;;;28.73;25.60;;;;;;;;;;6159239;23;20173;-86
2022/11/06 06:12:38;;;;;;;27.93;24.53;;;;;;;;;;6158915;23;20259;-86
2022/11/06 06:15:07;;;;;;;30.13;26.97;;;;;;;;;;6185250;23;20173;-86
2022/11/06 06:17:35;;;;;;;32.23;29.07;;;;;;;;;;6159061;23;20205;-86
2022/11/06 06:20:04;;;;;;;30.10;26.97;;;;;;;;;;6159311;23;20237;-86
2022/11/06 06:22:33;;;;;;;26.27;18.63;;;;;;;;;;6159516;23;20173;-86
2022/11/06 06:25:01;;;;;;;19.47;17.23;;;;;;;;;;6158876;23;20260;-86
2022/11/06 06:27:31;;;;;;;27.90;23.27;;;;;;;;;;6159109;23;20228;-86
2022/11/06 06:29:59;;;;;;;24.43;21.93;;;;;;;;;;6159117;23;20236;-86
2022/11/06 06:32:28;;;;;;;15.63;14.17;;;;;;;;;;6183862;23;20213;-86
2022/11/06 06:34:56;;;;;;;23.97;21.67;;;;;;;;;;6185401;23;20166;-86
2022/11/06 06:37:24;;;;;;;22.27;15.20;;;;;;;;;;6159160;23;20181;-86
2022/11/06 06:39:53;;;;;;;21.50;16.87;;;;;;;;;;6159337;23;20181;-86
2022/11/06 06:42:21;;;;;;;21.70;17.23;;;;;;;;;;6159347;23;20228;-86
2022/11/06 06:44:57;;;;;;;21.00;18.73;;;;;;;;;;6158882;23;20304;-86
2022/11/06 06:47:25;;;;;;;18.10;16.50;;;;;;;;;;6159218;23;20245;-86
2022/11/06 06:49:54;;;;;;;24.40;19.27;;;;;;;;;;6159384;23;20232;-86
2022/11/06 06:52:22;;;;;;;22.57;19.73;;;;;;;;;;6160345;23;20174;-86
2022/11/06 06:54:50;;;;;;;15.27;13.93;;;;;;;;;;6160725;23;20224;-86
2022/11/06 06:57:19;;;;;;;18.63;17.00;;;;;;;;;;6160775;23;20180;-86
2022/11/06 06:59:47;;;;;;;18.97;16.87;;;;;;;;;;6160639;23;20176;-86
2022/11/06 07:02:17;;;;;;;17.20;15.40;;;;;;;;;;6160611;23;20181;-86
2022/11/06 07:04:46;;;;;;;19.60;17.10;;;;;;;;;;6186907;23;20203;-87
2022/11/06 07:07:14;;;;;;;17.93;14.63;;;;;;;;;;6160707;23;20241;-86
2022/11/06 07:09:43;;;;;;;8.60;7.03;;;;;;;;;;6186857;23;20173;-86
2022/11/06 07:12:11;;;;;;;17.70;15.87;;;;;;;;;;6160469;23;20244;-86
2022/11/06 07:14:40;;;;;;;13.70;12.17;;;;;;;;;;6187034;23;20238;-86
2022/11/06 07:17:09;;;;;;;16.00;14.43;;;;;;;;;;6160604;23;20174;-86
2022/11/06 07:19:38;;;;;;;16.23;14.63;;;;;;;;;;6160843;23;20175;-87
2022/11/06 07:22:07;;;;;;;16.70;15.10;;;;;;;;;;6160695;23;20183;-86
2022/11/06 07:24:35;;;;;;;11.50;7.83;;;;;;;;;;6186619;23;20193;-86
2022/11/06 07:27:03;;;;;;;16.67;13.83;;;;;;;;;;6185790;23;20218;-86
2022/11/06 07:29:32;;;;;;;18.87;13.10;;;;;;;;;;6160341;23;20204;-87
2022/11/06 07:32:00;;;;;;;14.20;11.73;;;;;;;;;;6160439;23;20179;-86
2022/11/06 07:34:29;;;;;;;14.67;13.13;;;;;;;;;;6185284;23;20185;-86
2022/11/06 07:36:58;;;;;;;8.73;7.83;;;;;;;;;;6160058;23;20176;-86
2022/11/06 07:39:33;;;;;;;17.40;15.90;;;;;;;;;;6160348;23;20287;-86
2022/11/06 07:42:02;;;;;;;15.03;13.60;;;;;;;;;;6186597;23;20169;-86
2022/11/06 07:44:30;;;;;;;18.27;16.40;;;;;;;;;;6160644;23;20177;-86
2022/11/06 07:46:59;;;;;;;13.60;9.20;;;;;;;;;;6160307;23;20235;-86
2022/11/06 07:49:27;;;;;;;16.33;14.73;;;;;;;;;;6185121;23;20177;-86
2022/11/06 07:51:55;;;;;;;19.33;17.63;;;;;;;;;;6160022;23;20184;-87
2022/11/06 07:54:25;;;;;;;17.90;16.20;;;;;;;;;;6186661;23;20169;-87
2022/11/06 07:56:53;;;;;;;16.87;15.10;;;;;;;;;;6186662;23;20246;-86
2022/11/06 07:59:22;;;;;;;17.07;15.30;;;;;;;;;;6160494;23;20269;-86
2022/11/06 08:01:50;;;;;;;16.77;15.23;;;;;;;;;;6186401;23;20178;-86
2022/11/06 08:04:19;;;;;;;12.67;11.53;;;;;;;;;;6159628;23;20232;-86
2022/11/06 08:06:47;;;;;;;10.77;7.47;;;;;;;;;;6184675;23;20251;-86
2022/11/06 08:09:16;;;;;;;14.63;12.03;;;;;;;;;;6160113;23;20185;-86
2022/11/06 08:11:45;;;;;;;15.67;12.63;;;;;;;;;;6160060;23;20185;-86
2022/11/06 08:14:14;;;;;;;12.70;11.50;;;;;;;;;;6160155;23;20236;-87
2022/11/06 08:16:42;;;;;;;14.37;12.70;;;;;;;;;;6160046;23;20223;-87
2022/11/06 08:19:11;;;;;;;12.97;10.50;;;;;;;;;;6160251;23;20264;-87
2022/11/06 08:21:39;;;;;;;11.70;8.53;;;;;;;;;;6186071;23;20519;-87
2022/11/06 08:24:07;;;;;;;11.97;10.90;;;;;;;;;;6185844;23;20187;-86
2022/11/06 08:26:36;;;;;;;13.00;11.70;;;;;;;;;;6160470;23;20197;-86
2022/11/06 08:29:06;;;;;;;6.67;6.07;;;;;;;;;;6159967;23;20193;-87
2022/11/06 08:31:34;;;;;;;11.83;10.40;;;;;;;;;;6185109;23;20177;-87
2022/11/06 08:34:03;;;;;;;11.50;9.47;;;;;;;;;;6185827;23;20170;-87
2022/11/06 08:36:32;;;;;;;10.63;6.97;;;;;;;;;;6184685;23;20294;-87
2022/11/06 08:39:00;;;;;;;10.67;9.37;;;;;;;;;;6159576;23;20182;-87
2022/11/06 08:41:28;;;;;;;12.50;8.00;;;;;;;;;;6184767;23;20182;-86
2022/11/06 08:43:57;;;;;;;12.20;7.03;;;;;;;;;;6184943;23;20223;-87
2022/11/06 08:46:26;;;;;;;9.87;6.97;;;;;;;;;;6185714;23;20189;-87
2022/11/06 08:48:55;;;;;;;7.43;6.67;;;;;;;;;;6159920;23;20179;-87
2022/11/06 08:51:24;;;;;;;8.27;5.83;;;;;;;;;;6159816;23;20179;-87
2022/11/06 08:53:53;;;;;;;12.23;7.03;;;;;;;;;;6186015;23;20178;-87
2022/11/06 08:56:21;;;;;;;11.70;7.43;;;;;;;;;;6159686;23;20247;-87
2022/11/06 08:58:50;;;;;;;13.13;8.53;;;;;;;;;;6186059;23;20200;-87
2022/11/06 09:01:23;;;;;;;14.63;8.53;;;;;;;;;;6184171;23;20177;-87
2022/11/06 09:03:53;;;;;;;14.10;8.20;;;;;;;;;;6185791;23;20193;-87
2022/11/06 09:06:22;;;;;;;12.30;7.93;;;;;;;;;;6159407;23;20248;-87
2022/11/06 09:08:50;;;;;;;5.60;4.93;;;;;;;;;;6159608;23;20255;-87
2022/11/06 09:11:18;;;;;;;12.33;8.97;;;;;;;;;;6184617;23;20190;-87
2022/11/06 09:13:47;;;;;;;15.73;9.37;;;;;;;;;;6182228;23;20222;-87
2022/11/06 09:16:15;;;;;;;12.53;11.17;;;;;;;;;;6185662;23;20170;-87
2022/11/06 09:18:44;;;;;;;13.13;9.23;;;;;;;;;;6184611;23;20247;-87
2022/11/06 09:21:13;;;;;;;12.77;8.87;;;;;;;;;;6159230;23;20226;-87
2022/11/06 09:23:43;;;;;;;14.33;8.13;;;;;;;;;;6159848;23;20231;-87
2022/11/06 09:26:11;;;;;;;15.57;12.20;;;;;;;;;;6159612;23;20198;-87
2022/11/06 09:28:40;;;;;;;18.13;9.90;;;;;;;;;;6185493;23;20177;-87
2022/11/06 09:31:10;;;;;;;19.40;13.73;;;;;;;;;;6184250;23;20177;-87
2022/11/06 09:33:38;;;;;;;17.97;11.10;;;;;;;;;;6185492;23;20173;-87
2022/11/06 09:36:07;;;;;;;20.77;15.37;;;;;;;;;;6184429;23;20178;-87
2022/11/06 09:38:36;;;;;;;19.17;11.93;;;;;;;;;;6159785;23;20209;-87
2022/11/06 09:41:05;;;;;;;14.40;12.33;;;;;;;;;;6185406;23;20170;-87
2022/11/06 09:43:45;;;;;;;21.07;10.63;;;;;;;;;;6159260;23;20236;-87
2022/11/06 09:46:35;;;;;;;14.10;10.57;;;;;;;;;;6185753;23;20208;-87
2022/11/06 09:49:08;;;;;;;14.60;11.13;;;;;;;;;;6184558;23;20200;-87
2022/11/06 09:51:39;;;;;;;14.80;9.27;;;;;;;;;;6184364;23;20182;-87
2022/11/06 09:54:13;;;;;;;10.40;8.23;;;;;;;;;;6184352;23;20187;-87
2022/11/06 09:56:42;;;;;;;13.30;8.33;;;;;;;;;;6185420;23;20170;-87
2022/11/06 09:59:12;;;;;;;12.97;5.77;;;;;;;;;;6185546;23;20181;-87
2022/11/06 10:01:43;;;;;;;4.33;3.70;;;;;;;;;;6159593;23;20177;-87
2022/11/06 10:04:21;;;;;;;10.17;7.57;;;;;;;;;;6159092;23;20195;-87
2022/11/06 10:06:50;;;;;;;10.47;7.57;;;;;;;;;;6184270;23;20198;-87
2022/11/06 10:09:19;;;;;;;11.20;8.90;;;;;;;;;;6159277;23;20175;-87
2022/11/06 10:11:52;;;;;;;13.50;9.17;;;;;;;;;;6159684;23;20186;-87
2022/11/06 10:14:26;;;;;;;13.07;9.67;;;;;;;;;;6159222;23;20214;-87
2022/11/06 10:17:00;;;;;;;22.00;9.90;;;;;;;;;;6184435;23;20212;-87
2022/11/06 10:19:36;;;;;;;12.73;9.27;;;;;;;;;;6185361;23;20174;-87
2022/11/06 10:22:09;;;;;;;9.87;7.33;;;;;;;;;;6159573;23;20177;-87
2022/11/06 10:24:44;;;;;;;17.40;9.40;;;;;;;;;;6185515;23;20198;-87
2022/11/06 10:27:15;;;;;;;14.43;9.27;;;;;;;;;;6160462;23;20196;-87
2022/11/06 10:29:49;;;;;;;14.40;9.47;;;;;;;;;;6186245;23;20179;-87
2022/11/06 10:32:27;;;;;;;14.80;8.43;;;;;;;;;;6160842;23;20174;-87
2022/11/06 10:34:58;;;;;;;11.43;8.33;;;;;;;;;;6161225;23;20178;-87
2022/11/06 10:37:28;;;;;;;8.30;6.00;;;;;;;;;;6185665;23;20180;-87
2022/11/06 10:39:59;;;;;;;9.73;7.67;;;;;;;;;;6161415;23;20182;-87
2022/11/06 10:42:29;;;;;;;9.47;6.80;;;;;;;;;;6160920;23;20179;-87
2022/11/06 10:45:06;;;;;;;13.07;6.57;;;;;;;;;;6160860;23;20173;-87
2022/11/06 10:47:39;;;;;;;9.27;4.57;;;;;;;;;;6161243;23;20198;-87
2022/11/06 10:50:12;;;;;;;12.87;5.80;;;;;;;;;;6185781;23;20178;-87
2022/11/06 10:52:49;;;;;;;11.50;4.83;;;;;;;;;;6186762;23;20178;-87
2022/11/06 10:55:38;;;;;;;7.63;4.73;;;;;;;;;;6161041;23;20213;-87
2022/11/06 10:58:09;;;;;;;8.60;6.00;;;;;;;;;;6187074;23;20185;-87
2022/11/06 11:00:37;;;;;;;9.27;4.43;;;;;;;;;;6161150;23;20178;-87
2022/11/06 11:03:07;;;;;;;10.97;5.47;;;;;;;;;;6160398;23;20269;-87
2022/11/06 11:05:37;;;;;;;11.87;5.23;;;;;;;;;;6185956;23;20236;-87
2022/11/06 11:08:06;;;;;;;7.90;4.03;;;;;;;;;;6160580;23;20187;-87
2022/11/06 11:10:34;;;;;;;7.97;3.90;;;;;;;;;;6185464;23;20176;-85
2022/11/06 11:13:04;;;;;;;6.67;5.30;;;;;;;;;;6160632;23;20179;-88
2022/11/06 11:15:43;;;;;;;10.23;5.67;;;;;;;;;;6186705;23;20209;-88
2022/11/06 11:18:19;;;;;;;13.43;6.00;;;;;;;;;;6160209;23;20167;-87
2022/11/06 11:20:48;;;;;;;7.23;5.80;;;;;;;;;;6186788;23;20169;-87
2022/11/06 11:23:18;;;;;;;9.83;5.70;;;;;;;;;;6186646;23;20168;-88
2022/11/06 11:25:48;;;;;;;9.20;5.50;;;;;;;;;;6160778;23;20209;-88
2022/11/06 11:28:22;;;;;;;10.00;5.47;;;;;;;;;;6187126;23;20191;-88
2022/11/06 11:30:56;;;;;;;10.37;4.43;;;;;;;;;;6160424;23;20186;-87
2022/11/06 11:33:26;;;;;;;7.40;5.00;;;;;;;;;;6160807;23;20175;-87
2022/11/06 11:35:54;;;;;;;8.97;5.70;;;;;;;;;;6160876;23;20259;-85
2022/11/06 11:38:24;;;;;;;8.40;5.70;;;;;;;;;;6186417;23;20194;-85
2022/11/06 11:40:53;;;;;;;6.27;3.40;;;;;;;;;;6160679;23;20179;-85
2022/11/06 11:43:23;;;;;;;10.57;6.43;;;;;;;;;;6185536;23;20270;-85
2022/11/06 11:46:03;;;;;;;7.67;6.43;;;;;;;;;;6185643;23;20183;-86
2022/11/06 11:48:46;;;;;;;14.03;11.17;;;;;;;;;;6186723;23;20194;-86
2022/11/06 11:51:19;;;;;;;14.00;11.33;;;;;;;;;;6157531;23;20179;-86
2022/11/06 11:53:48;;;;;;;11.57;10.37;;;;;;;;;;6160241;23;20171;-86
2022/11/06 11:56:17;;;;;;;10.47;9.43;;;;;;;;;;6186557;23;20178;-86
2022/11/06 11:59:05;;;;;;;12.43;11.23;;;;;;;;;;6160281;23;20272;-86
2022/11/06 12:01:37;;;;;;;8.23;5.83;;;;;;;;;;6186294;23;20171;-86
2022/11/06 12:04:11;;;;;;;7.30;6.30;;;;;;;;;;6186297;23;20195;-86
2022/11/06 12:06:49;;;;;;;10.33;9.33;;;;;;;;;;6186279;23;20178;-86
2022/11/06 12:09:18;;;;;;;10.37;8.67;;;;;;;;;;6186710;23;20163;-86
2022/11/06 12:11:46;;;;;;;9.73;8.83;;;;;;;;;;6185076;23;20244;-87
2022/11/06 12:14:20;;;;;;;9.87;7.50;;;;;;;;;;6160056;23;20210;-87
2022/11/06 12:16:51;;;;;;;7.53;6.77;;;;;;;;;;6185074;23;20186;-87
2022/11/06 12:19:21;;;;;;;4.60;3.60;;;;;;;;;;6186145;23;20175;-87
2022/11/06 12:21:52;;;;;;;6.43;5.83;;;;;;;;;;6160123;23;20202;-87
2022/11/06 12:24:22;;;;;;;6.20;5.60;;;;;;;;;;6160376;23;20179;-86
2022/11/06 12:26:52;;;;;;;5.63;5.13;;;;;;;;;;6160585;23;20217;-86
2022/11/06 12:29:22;;;;;;;7.23;5.10;;;;;;;;;;6184743;23;20233;-86
2022/11/06 12:31:54;;;;;;;4.57;4.17;;;;;;;;;;6160322;23;20179;-86
2022/11/06 12:34:24;;;;;;;6.27;4.00;;;;;;;;;;6160107;23;20171;-87
2022/11/06 12:37:05;;;;;;;6.47;4.30;;;;;;;;;;6185181;23;20230;-86
2022/11/06 12:39:35;;;;;;;5.67;4.00;;;;;;;;;;6160338;23;20174;-87
2022/11/06 12:42:04;;;;;;;4.67;3.13;;;;;;;;;;6159738;23;20175;-87
2022/11/06 12:44:33;;;;;;;7.17;3.77;;;;;;;;;;6186065;23;20223;-86
2022/11/06 12:47:07;;;;;;;5.27;3.00;;;;;;;;;;6184453;23;20209;-87
2022/11/06 12:49:44;;;;;;;5.47;4.07;;;;;;;;;;6185736;23;20176;-87
2022/11/06 12:52:18;;;;;;;7.27;3.30;;;;;;;;;;6184514;23;20178;-87
2022/11/06 12:54:54;;;;;;;6.30;4.00;;;;;;;;;;6159864;23;20186;-87
2022/11/06 12:57:26;;;;;;;7.37;4.40;;;;;;;;;;6184514;23;20205;-87
2022/11/06 13:00:04;;;;;;;10.70;4.37;;;;;;;;;;6185650;23;20220;-87
2022/11/06 13:02:42;;;;;;;5.63;4.70;;;;;;;;;;6185985;23;20205;-87
2022/11/06 13:05:15;;;;;;;9.90;5.73;;;;;;;;;;6184167;23;20195;-87
2022/11/06 13:07:51;;;;;;;6.37;4.93;;;;;;;;;;6159744;23;20203;-87
2022/11/06 13:10:31;;;;;;;10.87;6.63;;;;;;;;;;6186078;23;20232;-87
2022/11/06 13:13:17;;;;;;;7.50;6.67;;;;;;;;;;6184586;23;20178;-87
2022/11/06 13:15:49;;;;;;;10.20;7.20;;;;;;;;;;6159172;23;20202;-86
2022/11/06 13:18:20;;;;;;;8.47;5.60;;;;;;;;;;6159542;23;20171;-86
2022/11/06 13:20:52;;;;;;;8.67;5.27;;;;;;;;;;6159455;23;20175;-86
2022/11/06 13:23:25;;;;;;;8.63;5.50;;;;;;;;;;6159859;23;20254;-86
2022/11/06 13:25:57;;;;;;;6.00;4.23;;;;;;;;;;6159730;23;20224;-86
2022/11/06 13:28:28;;;;;;;7.47;4.40;;;;;;;;;;6185745;23;20259;-86
2022/11/06 13:30:58;;;;;;;7.27;3.03;;;;;;;;;;6159369;23;20186;-86
2022/11/06 13:33:30;;;;;;;10.03;3.63;;;;;;;;;;6160074;23;20178;-86
2022/11/06 13:36:00;;;;;;;9.17;3.47;;;;;;;;;;6159503;23;20178;-86
2022/11/06 13:38:29;;;;;;;9.40;4.50;;;;;;;;;;6184196;23;20217;-86
2022/11/06 13:41:00;;;;;;;6.40;3.30;;;;;;;;;;6159563;23;20178;-86
2022/11/06 13:43:34;;;;;;;7.47;4.50;;;;;;;;;;6159169;23;20181;-86
2022/11/06 13:46:06;;;;;;;3.83;2.33;;;;;;;;;;6159660;23;20183;-86
2022/11/06 13:48:39;;;;;;;7.67;5.20;;;;;;;;;;6159370;23;20253;-86
2022/11/06 13:51:13;;;;;;;7.77;5.50;;;;;;;;;;6185405;23;20167;-86
2022/11/06 13:53:45;;;;;;;7.80;4.67;;;;;;;;;;6159410;23;20183;-86
2022/11/06 13:56:20;;;;;;;7.97;6.23;;;;;;;;;;6184594;23;20179;-86
2022/11/06 13:59:15;;;;;;;5.23;3.97;;;;;;;;;;6159383;23;20198;-86
2022/11/06 14:01:49;;;;;;;8.03;5.37;;;;;;;;;;6185046;23;20235;-86
2022/11/06 14:04:37;;;;;;;9.27;6.03;;;;;;;;;;6161292;23;20237;-86
2022/11/06 14:07:08;;;;;;;8.20;4.17;;;;;;;;;;6161330;23;20177;-86
2022/11/06 14:09:37;;;;;;;6.73;4.47;;;;;;;;;;6185778;23;20194;-86
2022/11/06 14:12:08;;;;;;;6.37;5.30;;;;;;;;;;6161653;23;20183;-86
2022/11/06 14:14:42;;;;;;;8.27;5.30;;;;;;;;;;6160965;23;20215;-87
2022/11/06 14:17:12;;;;;;;7.70;5.47;;;;;;;;;;6161885;23;20182;-87
2022/11/06 14:19:41;;;;;;;5.63;4.07;;;;;;;;;;6161006;23;20174;-86
2022/11/06 14:22:25;;;;;;;7.57;4.97;;;;;;;;;;6161601;23;20200;-87
2022/11/06 14:24:53;;;;;;;6.73;5.00;;;;;;;;;;6186034;23;20185;-86
2022/11/06 14:27:47;;;;;;;9.47;4.67;;;;;;;;;;6160992;23;20247;-87
2022/11/06 14:30:38;;;;;;;7.73;5.97;;;;;;;;;;6160860;23;20197;-86
2022/11/06 14:33:41;;;;;;;9.50;4.07;;;;;;;;;;6160880;23;20181;-86
2022/11/06 14:36:14;;;;;;;7.63;4.43;;;;;;;;;;6186514;23;20268;-88
2022/11/06 14:38:44;;;;;;;7.93;5.73;;;;;;;;;;6161046;23;20232;-87
2022/11/06 14:41:37;;;;;;;7.57;4.40;;;;;;;;;;6186073;23;20198;-87
2022/11/06 14:44:06;;;;;;;7.83;5.00;;;;;;;;;;6134041;23;20177;-87
2022/11/06 14:46:34;;;;;;;5.23;4.17;;;;;;;;;;6185825;23;20180;-87
2022/11/06 14:49:08;;;;;;;6.20;4.43;;;;;;;;;;6160700;23;20209;-87
2022/11/06 14:51:37;;;;;;;5.17;4.07;;;;;;;;;;6160600;23;20181;-87
2022/11/06 14:54:17;;;;;;;7.00;3.53;;;;;;;;;;6160909;23;20188;-87
2022/11/06 14:56:52;;;;;;;7.67;4.47;;;;;;;;;;6186000;23;20178;-86
2022/11/06 14:59:22;;;;;;;5.23;2.93;;;;;;;;;;6161120;23;20247;-85
2022/11/06 15:01:56;;;;;;;5.83;4.10;;;;;;;;;;6160827;23;20177;-85